Time;durP1;ratioP1;P1;durP2;ratioP2;P2;SDS_P1;SDS_P2;PMS_P1;PMS_P2;Temp;Humidity;BMP_temperature;BMP_pressure;BME280_temperature;BME280_humidity;BME280_pressure;Samples;Min_cycle;Max_cycle;Signal;HPM_P1;HPM_P2
2022/06/09 00:01:13;;;;;;;;;2.75;2.00;;;;;14.43;69.81;101094.72;5033688;28;45717;-82
2022/06/09 00:04:22;;;;;;;;;4.00;3.00;;;;;14.39;69.13;101093.09;5034064;28;45878;-82
2022/06/09 00:06:58;;;;;;;;;3.75;2.50;;;;;14.36;69.44;101102.84;5035128;28;45420;-83
2022/06/09 00:09:28;;;;;;;;;7.00;3.00;;;;;14.36;69.44;101105.44;5015996;28;45503;-83
2022/06/09 00:11:54;;;;;;;;;5.25;2.00;;;;;14.33;69.04;101114.28;5035636;28;45411;-83
2022/06/09 00:14:20;;;;;;;;;2.75;2.50;;;;;14.30;69.38;101109.16;5030086;28;62017;-84
2022/06/09 00:16:46;;;;;;;;;5.25;2.00;;;;;14.27;69.47;101114.53;5035694;28;45348;-84
2022/06/09 00:19:12;;;;;;;;;4.75;1.00;;;;;14.25;69.45;101111.97;5035162;28;45273;-83
2022/06/09 00:21:37;;;;;;;;;1.75;1.25;;;;;14.25;69.92;101119.00;5035394;28;45444;-83
2022/06/09 00:24:04;;;;;;;;;2.75;1.25;;;;;14.23;69.68;101113.81;5034703;28;45648;-83
2022/06/09 00:26:30;;;;;;;;;3.00;1.75;;;;;14.23;69.44;101118.19;5034784;28;45450;-83
2022/06/09 00:28:56;;;;;;;;;2.50;1.00;;;;;14.25;69.72;101122.44;5030889;28;45208;-83
2022/06/09 00:31:22;;;;;;;;;3.25;2.00;;;;;14.24;69.38;101122.50;5036643;28;46285;-83
2022/06/09 00:33:48;;;;;;;;;4.00;2.00;;;;;14.20;69.40;101123.53;5036802;28;45308;-83
2022/06/09 00:36:13;;;;;;;;;2.50;2.50;;;;;14.19;69.55;101132.28;5039023;28;58999;-83
2022/06/09 00:38:39;;;;;;;;;1.50;1.50;;;;;14.17;69.80;101127.13;5037020;28;54981;-83
2022/06/09 00:41:05;;;;;;;;;3.00;3.00;;;;;14.13;69.06;101125.53;5031083;28;68110;-83
2022/06/09 00:43:31;;;;;;;;;3.00;1.00;;;;;14.10;69.72;101128.28;5034731;28;45472;-84
2022/06/09 00:46:19;;;;;;;;;1.50;1.00;;;;;14.06;69.31;101118.81;5037482;28;45458;-83
2022/06/09 00:48:50;;;;;;;;;4.00;2.25;;;;;14.02;69.18;101125.94;5036366;28;45649;-83
2022/06/09 00:51:31;;;;;;;;;3.00;2.25;;;;;13.98;69.94;101129.56;5038802;28;47025;-83
2022/06/09 00:54:09;;;;;;;;;6.50;2.25;;;;;13.97;69.61;101127.88;5031086;28;45543;-84
2022/06/09 00:56:39;;;;;;;;;4.00;2.75;;;;;13.95;69.99;101129.69;5033875;28;45468;-83
2022/06/09 00:59:04;;;;;;;;;4.00;2.00;;;;;13.94;69.47;101133.22;5039938;28;45479;-83
2022/06/09 01:01:31;;;;;;;;;4.00;3.00;;;;;13.89;70.11;101133.41;5036733;28;71360;-82
2022/06/09 01:04:01;;;;;;;;;1.00;1.00;;;;;13.90;70.40;101134.22;5036592;28;45846;-82
2022/06/09 01:06:41;;;;;;;;;4.00;2.00;;;;;13.90;69.90;101129.84;5034963;28;45490;-84
2022/06/09 01:09:12;;;;;;;;;2.50;2.00;;;;;13.91;70.16;101135.94;5036346;28;45348;-84
2022/06/09 01:11:39;;;;;;;;;2.00;1.00;;;;;13.89;69.47;101136.00;5032316;28;46607;-82
2022/06/09 01:14:06;;;;;;;;;2.00;1.00;;;;;13.86;69.83;101132.66;5033376;28;45736;-83
2022/06/09 01:17:05;;;;;;;;;3.75;1.25;;;;;13.84;70.41;101139.69;5019487;28;45458;-83
2022/06/09 01:19:47;;;;;;;;;5.00;3.00;;;;;13.80;70.13;101146.81;5023667;28;45440;-82
2022/06/09 01:22:24;;;;;;;;;4.00;2.00;;;;;13.77;70.06;101146.91;5036174;28;46454;-83
2022/06/09 01:25:00;;;;;;;;;1.50;1.50;;;;;13.72;69.79;101139.22;5036127;28;45341;-82
2022/06/09 01:27:53;;;;;;;;;2.50;2.50;;;;;13.71;70.25;101144.50;5033187;28;45342;-82
2022/06/09 01:30:32;;;;;;;;;4.75;1.00;;;;;13.66;70.76;101151.66;5038590;28;45230;-82
2022/06/09 01:33:26;;;;;;;;;3.00;2.00;;;;;13.64;70.70;101148.25;5038403;28;45562;-83
2022/06/09 01:36:00;;;;;;;;;3.75;2.00;;;;;13.60;70.36;101154.50;4976907;28;45967;-84
2022/06/09 01:38:25;;;;;;;;;3.50;3.00;;;;;13.59;70.76;101153.63;4975921;28;45549;-83
2022/06/09 01:40:50;;;;;;;;;1.25;1.25;;;;;13.57;70.72;101150.22;4973927;28;70546;-83
2022/06/09 01:43:16;;;;;;;;;3.75;2.00;;;;;13.56;70.38;101153.75;4959174;28;49985;-83
2022/06/09 01:45:49;;;;;;;;;5.00;2.00;;;;;13.52;71.02;101154.75;4975819;28;45556;-83
2022/06/09 01:48:17;;;;;;;;;4.25;1.50;;;;;13.53;71.01;101159.09;4976195;28;45438;-82
2022/06/09 01:51:13;;;;;;;;;2.50;1.75;;;;;13.52;71.39;101166.09;4975944;28;45445;-83
2022/06/09 01:53:55;;;;;;;;;1.00;1.00;;;;;13.51;71.01;101164.34;4982106;28;45611;-83
2022/06/09 01:56:28;;;;;;;;;7.00;2.00;;;;;13.51;71.37;101161.75;4988842;28;45477;-84
2022/06/09 01:58:55;;;;;;;;;4.75;1.00;;;;;13.52;70.98;101157.34;4992756;28;45409;-83
2022/06/09 02:01:26;;;;;;;;;6.25;3.00;;;;;13.58;70.86;101166.75;4976196;28;45428;-83
2022/06/09 02:03:55;;;;;;;;;3.75;1.00;;;;;13.61;71.47;101180.59;4976231;28;45716;-84
2022/06/09 02:06:21;;;;;;;;;9.50;1.00;;;;;13.65;70.84;101182.22;4989152;28;45478;-82
2022/06/09 02:08:47;;;;;;;;;3.25;2.00;;;;;13.64;70.77;101188.34;4976401;28;45649;-84
2022/06/09 02:11:13;;;;;;;;;1.75;1.00;;;;;13.64;71.13;101183.09;4975261;28;70040;-83
2022/06/09 02:13:43;;;;;;;;;3.50;1.00;;;;;13.62;71.28;101189.31;5024881;28;46108;-83
2022/06/09 02:16:13;;;;;;;;;7.00;1.25;;;;;13.61;71.84;101185.81;5033406;28;45913;-84
2022/06/09 02:18:42;;;;;;;;;1.50;1.00;;;;;13.59;70.87;101186.78;5017964;28;45627;-83
2022/06/09 02:21:12;;;;;;;;;6.50;1.50;;;;;13.58;71.37;101193.78;5038699;28;45517;-84
2022/06/09 02:23:37;;;;;;;;;2.75;1.00;;;;;13.53;70.67;101190.47;5037285;28;45658;-83
2022/06/09 02:26:04;;;;;;;;;2.25;1.25;;;;;13.57;71.07;101193.84;5035643;28;45477;-83
2022/06/09 02:28:29;;;;;;;;;2.00;2.00;;;;;13.56;71.05;101187.75;5035236;28;45427;-83
2022/06/09 02:30:55;;;;;;;;;1.00;1.00;;;;;13.55;71.36;101189.50;5034864;28;45380;-82
2022/06/09 02:33:20;;;;;;;;;2.50;2.00;;;;;13.58;71.08;101193.78;5036421;28;67577;-83
2022/06/09 02:35:50;;;;;;;;;2.50;1.00;;;;;13.55;71.38;101189.50;5034769;28;45314;-83
2022/06/09 02:38:16;;;;;;;;;4.00;1.50;;;;;13.57;70.81;101191.22;5034740;28;45276;-83
2022/06/09 02:40:41;;;;;;;;;3.00;3.00;;;;;13.57;70.72;101194.69;5035199;28;45305;-83
2022/06/09 02:43:06;;;;;;;;;2.25;1.50;;;;;13.52;70.73;101189.63;5033765;28;70200;-83
2022/06/09 02:45:33;;;;;;;;;1.50;1.00;;;;;13.50;70.78;101195.78;5034744;28;64121;-83
2022/06/09 02:48:01;;;;;;;;;3.50;1.50;;;;;13.51;71.26;101200.13;5031560;28;45395;-83
2022/06/09 02:50:27;;;;;;;;;7.00;1.00;;;;;13.52;71.06;101201.81;5032286;28;45463;-82
2022/06/09 02:52:53;;;;;;;;;7.00;2.00;;;;;13.52;70.69;101201.81;5030576;28;46390;-83
2022/06/09 02:55:18;;;;;;;;;5.00;1.25;;;;;13.51;70.96;101200.13;5034935;28;45444;-83
2022/06/09 02:57:44;;;;;;;;;2.50;2.00;;;;;13.50;71.15;101201.91;5033627;28;45566;-83
2022/06/09 03:00:12;;;;;;;;;7.00;2.25;;;;;13.53;71.05;101204.38;5035463;28;68671;-83
2022/06/09 03:02:38;;;;;;;;;2.50;1.00;;;;;13.54;70.71;101208.72;5034309;28;45566;-83
2022/06/09 03:05:04;;;;;;;;;7.00;3.00;;;;;13.54;70.73;101205.25;5028655;28;45511;-83
2022/06/09 03:07:29;;;;;;;;;2.75;2.00;;;;;13.53;70.72;101209.63;5034754;28;45490;-83
2022/06/09 03:09:54;;;;;;;;;6.75;1.50;;;;;13.51;70.74;101214.06;5033646;28;65436;-83
2022/06/09 03:12:21;;;;;;;;;9.75;2.00;;;;;13.48;70.99;101208.06;5035932;28;65263;-83
2022/06/09 03:14:46;;;;;;;;;3.25;2.00;;;;;13.46;70.56;101204.66;5033749;28;45393;-83
2022/06/09 03:17:12;;;;;;;;;7.00;3.00;;;;;13.44;70.60;101207.31;5034493;28;45443;-83
2022/06/09 03:19:38;;;;;;;;;5.25;2.00;;;;;13.42;71.03;101198.66;5032432;28;63624;-83
2022/06/09 03:22:04;;;;;;;;;3.00;3.00;;;;;13.44;71.21;101203.84;5031052;28;46398;-83
2022/06/09 03:24:30;;;;;;;;;2.75;2.00;;;;;13.44;71.01;101204.69;5032837;28;45348;-84
2022/06/09 03:26:55;;;;;;;;;2.75;2.50;;;;;13.42;71.12;101203.91;5032030;28;45394;-84
2022/06/09 03:29:24;;;;;;;;;2.00;2.00;;;;;13.45;71.28;101211.66;5025600;28;45345;-83
2022/06/09 03:31:50;;;;;;;;;2.00;2.00;;;;;13.45;71.48;101209.03;5024981;28;47170;-84
2022/06/09 03:34:17;;;;;;;;;2.75;1.75;;;;;13.45;71.04;101216.03;5034071;28;45303;-83
2022/06/09 03:36:45;;;;;;;;;2.00;2.00;;;;;13.41;71.19;101220.50;5034259;28;45406;-83
2022/06/09 03:39:12;;;;;;;;;3.75;1.50;;;;;13.40;71.13;101221.41;5036141;28;45544;-83
2022/06/09 03:41:37;;;;;;;;;1.50;1.00;;;;;13.36;71.41;101227.66;5029523;28;46419;-83
2022/06/09 03:44:04;;;;;;;;;2.50;1.00;;;;;13.32;70.88;101226.03;5033657;28;45399;-83
2022/06/09 03:46:29;;;;;;;;;4.00;2.75;;;;;13.33;70.86;101232.97;5029874;28;45403;-83
2022/06/09 03:48:55;;;;;;;;;2.00;1.25;;;;;13.32;71.80;101233.88;5034249;28;45506;-84
2022/06/09 03:51:20;;;;;;;;;3.25;2.00;;;;;13.28;71.52;101233.09;5036014;28;45324;-83
2022/06/09 03:53:45;;;;;;;;;2.00;2.00;;;;;13.26;71.62;101239.25;5032248;28;47467;-83
2022/06/09 03:56:16;;;;;;;;;6.75;3.00;;;;;13.23;71.50;101244.59;5030048;28;62303;-84
2022/06/09 03:58:43;;;;;;;;;4.75;2.00;;;;;13.24;71.29;101255.03;5023259;28;45322;-84
2022/06/09 04:01:13;;;;;;;;;4.50;2.00;;;;;13.25;71.10;101266.31;5033751;28;45403;-84
2022/06/09 04:03:41;;;;;;;;;3.25;2.75;;;;;13.23;71.82;101263.75;5033438;28;45901;-84
2022/06/09 04:06:12;;;;;;;;;2.00;1.00;;;;;13.25;72.16;101266.31;5034356;28;45410;-83
2022/06/09 04:08:38;;;;;;;;;3.00;2.00;;;;;13.26;72.14;101257.56;5037010;28;45401;-83
2022/06/09 04:11:03;;;;;;;;;7.50;2.75;;;;;13.29;71.74;101258.31;5032564;28;74739;-83
2022/06/09 04:13:28;;;;;;;;;4.25;2.25;;;;;13.30;71.28;101257.47;5032217;28;71554;-84
2022/06/09 04:15:54;;;;;;;;;2.75;2.00;;;;;13.30;71.63;101262.69;5031980;28;45495;-84
2022/06/09 04:18:19;;;;;;;;;3.00;2.00;;;;;13.31;71.42;101266.16;5030167;28;65132;-84
2022/06/09 04:20:45;;;;;;;;;7.75;1.75;;;;;13.33;71.99;101274.78;5033004;28;45551;-84
2022/06/09 04:23:10;;;;;;;;;4.00;2.25;;;;;13.35;71.44;101273.88;5029021;28;45468;-84
2022/06/09 04:25:35;;;;;;;;;4.00;1.00;;;;;13.33;71.58;101270.44;5033613;28;45316;-84
2022/06/09 04:28:01;;;;;;;;;2.75;1.50;;;;;13.30;71.95;101275.75;5033006;28;45973;-84
2022/06/09 04:30:26;;;;;;;;;7.75;2.25;;;;;13.30;71.72;101272.25;5034631;28;47123;-84
2022/06/09 04:32:53;;;;;;;;;4.00;2.00;;;;;13.29;72.12;101284.47;5035137;28;45454;-84
2022/06/09 04:35:18;;;;;;;;;7.25;1.25;;;;;13.30;72.00;101286.22;5030124;28;45417;-84
2022/06/09 04:38:02;;;;;;;;;3.00;2.00;;;;;13.31;71.49;101293.13;5023925;28;47229;-84
2022/06/09 04:40:36;;;;;;;;;4.50;2.00;;;;;13.31;71.81;101302.75;5031915;28;46117;-84
2022/06/09 04:43:03;;;;;;;;;6.25;3.00;;;;;13.31;71.84;101298.38;5032739;28;45447;-84
2022/06/09 04:45:29;;;;;;;;;5.50;2.25;;;;;13.36;71.80;101300.84;5030850;28;45483;-84
2022/06/09 04:47:54;;;;;;;;;4.00;3.00;;;;;13.38;71.38;101300.81;5032661;28;45297;-83
2022/06/09 04:50:20;;;;;;;;;3.00;2.00;;;;;13.39;71.29;101310.34;5032872;28;46649;-83
2022/06/09 04:52:46;;;;;;;;;3.25;2.00;;;;;13.42;71.31;101308.50;5028710;28;45492;-83
2022/06/09 04:55:11;;;;;;;;;7.75;2.25;;;;;13.42;71.43;101310.25;5033104;28;45361;-83
2022/06/09 04:57:37;;;;;;;;;2.75;2.75;;;;;13.46;71.28;101312.72;5033042;28;45386;-83
2022/06/09 05:00:05;;;;;;;;;2.00;2.00;;;;;13.51;71.20;101325.66;5034715;28;47321;-83
2022/06/09 05:02:30;;;;;;;;;4.00;3.00;;;;;13.51;71.16;101321.28;5032612;28;45745;-84
2022/06/09 05:04:56;;;;;;;;;8.00;4.00;;;;;13.55;71.59;101322.03;5031880;28;67932;-83
2022/06/09 05:07:22;;;;;;;;;4.50;3.00;;;;;13.58;71.25;101334.16;5032851;28;45502;-84
2022/06/09 05:09:48;;;;;;;;;3.50;1.75;;;;;13.56;70.74;101329.00;5031076;28;47223;-83
2022/06/09 05:12:13;;;;;;;;;5.50;2.00;;;;;13.58;71.72;101329.81;5033696;28;45318;-83
2022/06/09 05:14:38;;;;;;;;;10.50;3.00;;;;;13.62;70.85;101331.41;5032633;28;50929;-84
2022/06/09 05:17:05;;;;;;;;;3.75;2.50;;;;;13.65;71.08;101338.28;5031562;28;60846;-83
2022/06/09 05:19:30;;;;;;;;;2.75;2.00;;;;;13.68;71.70;101327.72;5035719;28;45647;-84
2022/06/09 05:21:56;;;;;;;;;4.00;2.00;;;;;13.75;71.09;101335.34;5036126;28;45393;-85
2022/06/09 05:24:21;;;;;;;;;5.25;2.00;;;;;13.83;71.29;101340.31;5038911;28;45418;-84
2022/06/09 05:26:47;;;;;;;;;4.25;1.75;;;;;13.89;71.62;101342.75;5031644;28;45325;-84
2022/06/09 05:29:13;;;;;;;;;2.00;2.00;;;;;13.93;70.95;101344.34;5035002;28;72632;-85
2022/06/09 05:31:38;;;;;;;;;2.00;2.00;;;;;13.93;70.34;101346.97;5035919;28;45369;-83
2022/06/09 05:34:04;;;;;;;;;4.75;2.25;;;;;13.90;70.64;101352.28;5035342;28;61917;-83
2022/06/09 05:36:29;;;;;;;;;2.00;2.00;;;;;13.88;70.55;101356.72;5050356;28;45448;-83
2022/06/09 05:47:06;;;;;;;;;3.50;2.50;;;;;14.06;70.83;101375.31;5035688;28;45574;-82
2022/06/09 05:49:31;;;;;;;;;4.25;2.25;;;;;14.11;70.75;101373.41;5035216;28;60101;-84
2022/06/09 05:51:57;;;;;;;;;4.50;2.00;;;;;14.14;70.09;101383.81;5034770;28;69056;-83
2022/06/09 05:54:23;;;;;;;;;3.25;3.00;;;;;14.13;70.58;101385.56;5037732;28;45407;-83
2022/06/09 05:56:48;;;;;;;;;3.00;1.50;;;;;14.19;70.74;101386.25;5036723;28;45539;-82
2022/06/09 05:59:14;;;;;;;;;4.00;2.00;;;;;14.24;70.29;101386.94;5035343;28;46475;-83
2022/06/09 06:01:39;;;;;;;;;3.25;3.00;;;;;14.30;70.15;101386.75;5034894;28;57572;-83
2022/06/09 06:04:07;;;;;;;;;6.50;4.75;;;;;14.41;70.39;101387.25;5031981;28;62911;-86
2022/06/09 06:06:35;;;;;;;;;8.00;2.75;;;;;14.52;70.09;101394.72;5032990;28;45467;-83
2022/06/09 06:09:07;;;;;;;;;3.50;2.00;;;;;14.62;70.09;101396.16;5064549;28;45592;-83
2022/06/09 06:11:34;;;;;;;;;4.00;2.25;;;;;14.73;69.52;101403.63;5035304;28;45784;-81
2022/06/09 06:13:59;;;;;;;;;1.50;1.50;;;;;14.81;69.46;101401.59;5032451;28;45447;-81
2022/06/09 06:16:25;;;;;;;;;4.25;2.50;;;;;14.92;69.03;101405.59;5024223;28;45819;-81
2022/06/09 06:18:51;;;;;;;;;5.75;2.75;;;;;15.06;69.16;101408.53;5035143;28;46275;-81
2022/06/09 06:21:17;;;;;;;;;2.50;2.25;;;;;15.29;68.89;101413.78;5037008;28;50255;-82
2022/06/09 06:23:43;;;;;;;;;3.25;2.25;;;;;15.43;68.33;101410.66;5033160;28;45387;-82
2022/06/09 06:26:09;;;;;;;;;3.00;2.00;;;;;15.55;68.03;101409.31;5032493;28;45537;-82
2022/06/09 06:28:35;;;;;;;;;9.25;2.00;;;;;15.64;67.57;101418.59;5033837;28;45659;-81
2022/06/09 06:31:00;;;;;;;;;4.00;2.00;;;;;15.70;67.87;101414.88;5034362;28;68111;-81
2022/06/09 06:33:25;;;;;;;;;7.00;5.00;;;;;15.78;67.64;101416.31;5035961;28;65822;-81
2022/06/09 06:35:51;;;;;;;;;5.75;3.00;;;;;15.89;67.41;101418.50;5034132;28;45565;-81
2022/06/09 06:38:16;;;;;;;;;3.00;2.00;;;;;16.02;66.88;101417.09;5033732;28;59628;-81
2022/06/09 06:40:42;;;;;;;;;4.00;2.75;;;;;16.08;66.85;101423.00;5034902;28;45391;-81
2022/06/09 06:43:08;;;;;;;;;2.75;2.75;;;;;16.14;66.47;101425.38;5034926;28;45411;-82
2022/06/09 06:45:33;;;;;;;;;5.50;2.75;;;;;16.13;65.69;101428.94;5032663;28;45607;-83
2022/06/09 06:47:58;;;;;;;;;9.50;3.50;;;;;16.00;65.36;101423.31;5035833;28;45553;-82
2022/06/09 06:50:25;;;;;;;;;7.50;3.00;;;;;15.92;65.92;101431.50;5034622;28;45478;-82
2022/06/09 06:52:50;;;;;;;;;5.25;3.75;;;;;15.91;65.21;101434.19;5034545;28;45301;-82
2022/06/09 06:55:17;;;;;;;;;2.25;2.00;;;;;15.82;65.37;101430.16;5033346;28;45463;-81
2022/06/09 06:57:43;;;;;;;;;6.00;3.00;;;;;15.77;65.22;101432.13;5034571;28;46397;-82
2022/06/09 07:00:11;;;;;;;;;7.75;4.75;;;;;15.78;65.81;101432.06;5031477;28;61356;-81
2022/06/09 07:02:36;;;;;;;;;7.00;4.00;;;;;15.78;65.93;101441.69;5032728;28;45470;-82
2022/06/09 07:05:02;;;;;;;;;6.50;3.00;;;;;15.83;66.08;101450.25;5033570;28;53859;-82
2022/06/09 07:07:28;;;;;;;;;2.00;2.00;;;;;15.92;65.45;101459.56;5033582;28;46077;-88
2022/06/09 07:09:53;;;;;;;;;8.00;3.00;;;;;15.94;65.79;101466.44;5032869;28;45552;-86
2022/06/09 07:12:19;;;;;;;;;4.00;2.00;;;;;16.04;64.48;101459.03;5036549;28;45321;-87
2022/06/09 07:14:45;;;;;;;;;7.25;5.00;;;;;16.14;64.45;101470.03;5033296;28;45729;-87
2022/06/09 07:17:10;;;;;;;;;5.00;4.25;;;;;16.21;64.51;101467.09;5050015;28;45750;-82
2022/06/09 07:19:36;;;;;;;;;6.00;4.75;;;;;16.30;64.02;101472.88;5033457;28;60239;-83
2022/06/09 07:22:02;;;;;;;;;5.75;3.50;;;;;16.39;63.18;101478.59;5033789;28;45348;-83
2022/06/09 07:24:28;;;;;;;;;7.00;5.00;;;;;16.48;63.49;101482.63;5034367;28;45514;-83
2022/06/09 07:26:53;;;;;;;;;7.00;5.25;;;;;16.52;63.13;101478.94;5030331;28;47285;-83
2022/06/09 07:29:19;;;;;;;;;6.00;5.00;;;;;16.56;63.03;101487.56;5031766;28;45378;-84
2022/06/09 07:31:44;;;;;;;;;3.75;3.75;;;;;16.58;62.77;101489.19;5032156;28;56915;-82
2022/06/09 07:34:10;;;;;;;;;7.25;4.00;;;;;16.63;62.67;101487.25;5034354;28;45352;-84
2022/06/09 07:36:36;;;;;;;;;10.50;5.50;;;;;16.69;62.03;101494.00;5036574;28;45553;-83
2022/06/09 07:39:02;;;;;;;;;7.50;4.25;;;;;16.76;61.62;101505.13;5037403;28;45523;-82
2022/06/09 07:41:27;;;;;;;;;5.75;5.00;;;;;16.86;62.07;101502.97;5035681;28;45558;-84
2022/06/09 07:43:52;;;;;;;;;7.75;3.00;;;;;16.96;60.71;101496.41;5032685;28;67001;-85
2022/06/09 07:46:18;;;;;;;;;5.25;4.00;;;;;17.10;61.10;101499.28;5041299;28;61937;-83
2022/06/09 07:48:47;;;;;;;;;6.75;3.00;;;;;17.16;60.04;101506.91;5023929;28;45513;-84
2022/06/09 07:51:13;;;;;;;;;5.25;3.75;;;;;17.14;60.25;101508.75;5035106;28;45307;-85
2022/06/09 07:53:38;;;;;;;;;12.00;4.00;;;;;17.19;60.56;101505.91;5034065;28;45492;-84
2022/06/09 07:56:04;;;;;;;;;5.00;5.00;;;;;17.17;59.82;101508.59;5037815;28;45432;-85
2022/06/09 07:58:31;;;;;;;;;4.50;4.00;;;;;17.14;60.36;101505.25;5045163;28;45476;-83
2022/06/09 08:00:56;;;;;;;;;7.00;4.00;;;;;17.13;60.63;101501.78;5035333;28;45471;-85
2022/06/09 08:03:24;;;;;;;;;5.25;2.00;;;;;17.14;59.75;101494.75;5033676;28;52173;-84
2022/06/09 08:05:50;;;;;;;;;4.00;3.75;;;;;17.16;59.08;101495.53;5014863;28;48255;-84
2022/06/09 08:08:15;;;;;;;;;10.50;3.00;;;;;17.20;59.29;101505.84;5027693;28;45631;-84
2022/06/09 08:10:42;;;;;;;;;6.75;4.25;;;;;17.22;58.92;101505.78;5047519;28;45478;-85
2022/06/09 08:13:08;;;;;;;;;6.50;5.00;;;;;17.33;58.82;101505.31;5032972;28;45578;-84
2022/06/09 08:15:34;;;;;;;;;6.00;4.00;;;;;17.44;58.55;101507.44;5021817;28;45683;-85
2022/06/09 08:18:00;;;;;;;;;6.25;4.75;;;;;17.48;57.86;101523.03;5046614;28;45507;-84
2022/06/09 08:20:27;;;;;;;;;4.00;3.75;;;;;17.53;58.28;101512.28;5023980;28;45444;-85
2022/06/09 08:22:59;;;;;;;;;6.50;4.00;;;;;17.69;58.17;101508.03;5044830;28;45526;-84
2022/06/09 08:25:28;;;;;;;;;9.00;4.75;;;;;17.76;58.01;101527.03;5035681;28;45443;-85
2022/06/09 08:27:54;;;;;;;;;5.25;5.00;;;;;17.67;56.63;101533.56;5026047;28;45257;-84
2022/06/09 08:30:19;;;;;;;;;6.50;2.75;;;;;17.59;56.64;101533.09;5039674;28;45418;-86
2022/06/09 08:32:45;;;;;;;;;5.00;3.25;;;;;17.57;56.59;101540.19;5029723;28;45757;-84
2022/06/09 08:35:15;;;;;;;;;5.75;4.75;;;;;17.60;57.14;101542.66;5032467;28;45356;-84
2022/06/09 08:37:40;;;;;;;;;9.50;4.25;;;;;17.70;57.86;101533.44;5040976;28;45427;-84
2022/06/09 08:40:06;;;;;;;;;7.50;4.50;;;;;17.83;56.25;101543.38;5039085;28;45491;-84
2022/06/09 08:42:38;;;;;;;;;4.00;4.00;;;;;17.95;56.91;101537.59;5031950;28;45400;-83
2022/06/09 08:45:09;;;;;;;;;4.00;3.75;;;;;18.11;56.65;101530.66;5029644;28;48133;-83
2022/06/09 08:47:37;;;;;;;;;3.25;3.25;;;;;18.26;55.68;101533.50;5037506;28;45800;-84
2022/06/09 08:50:12;;;;;;;;;5.25;4.75;;;;;18.33;55.92;101529.59;5033443;28;45479;-85
2022/06/09 08:52:48;;;;;;;;;1.25;1.25;;;;;18.32;55.46;101534.03;5040583;28;45531;-83
2022/06/09 08:55:27;;;;;;;;;5.75;4.00;;;;;18.39;54.66;101531.97;5039801;28;46556;-83
2022/06/09 08:58:01;;;;;;;;;4.00;3.25;;;;;18.47;53.78;101521.03;5026996;28;45270;-83
2022/06/09 09:00:32;;;;;;;;;7.75;3.75;;;;;18.53;53.93;101515.44;5024006;28;45353;-84
2022/06/09 09:03:03;;;;;;;;;3.50;2.25;;;;;18.67;54.25;101514.78;5021149;28;45266;-84
2022/06/09 09:05:49;;;;;;;;;4.00;3.00;;;;;18.77;53.94;101511.56;5027510;28;45504;-85
2022/06/09 09:08:15;;;;;;;;;3.00;3.00;;;;;19.00;53.83;101514.88;5026407;28;45870;-83
2022/06/09 09:11:17;;;;;;;;;2.00;2.00;;;;;19.15;52.16;101514.03;5022964;28;58331;-84
2022/06/09 09:13:54;;;;;;;;;2.00;2.00;;;;;19.08;51.56;101511.81;5021096;28;45544;-84
2022/06/09 09:16:44;;;;;;;;;3.75;3.00;;;;;19.18;52.63;101512.19;5034622;28;45475;-84
2022/06/09 09:19:23;;;;;;;;;7.00;3.00;;;;;19.43;51.81;101517.88;5034025;28;49215;-84
2022/06/09 09:22:05;;;;;;;;;2.25;2.00;;;;;19.62;50.39;101519.50;5034529;28;45335;-84
2022/06/09 09:24:39;;;;;;;;;5.00;2.50;;;;;19.71;50.66;101525.13;5028455;28;45629;-84
2022/06/09 09:27:25;;;;;;;;;4.25;2.25;;;;;19.77;50.69;101520.50;5018671;28;47657;-84
2022/06/09 09:30:03;;;;;;;;;3.00;3.00;;;;;19.72;50.35;101531.25;5021441;28;45841;-84
2022/06/09 09:32:33;;;;;;;;;3.75;2.00;;;;;19.59;50.77;101536.34;5027789;28;45344;-85
2022/06/09 09:34:58;;;;;;;;;3.00;2.00;;;;;19.58;50.15;101529.38;5028374;28;45499;-85
2022/06/09 09:37:38;;;;;;;;;4.25;3.00;;;;;19.68;51.59;101533.22;5017715;28;46263;-85
2022/06/09 09:40:28;;;;;;;;;4.00;3.00;;;;;19.81;49.79;101533.41;5033490;28;46023;-85
2022/06/09 09:42:56;;;;;;;;;3.50;2.00;;;;;20.02;49.67;101530.53;5029278;28;45352;-85
2022/06/09 09:45:31;;;;;;;;;2.50;2.50;;;;;20.27;48.91;101527.34;5033467;28;45423;-84
2022/06/09 09:48:04;;;;;;;;;3.00;2.25;;;;;20.44;48.63;101529.88;5018509;28;46450;-84
2022/06/09 09:50:37;;;;;;;;;2.00;1.00;;;;;20.54;48.79;101526.69;5028215;28;45494;-84
2022/06/09 09:53:09;;;;;;;;;2.50;2.50;;;;;20.67;48.05;101539.16;5025842;28;45586;-84
2022/06/09 09:55:40;;;;;;;;;3.75;2.00;;;;;20.80;48.57;101527.81;5030890;28;45413;-85
2022/06/09 09:58:20;;;;;;;;;3.75;2.50;;;;;21.02;47.78;101533.56;5032423;28;46243;-85
2022/06/09 10:00:51;;;;;;;;;4.00;2.00;;;;;21.19;45.71;101537.81;5032852;28;45306;-85
2022/06/09 10:08:35;;;;;;;;;3.00;2.25;;;;;21.48;46.04;101544.94;5030591;28;45370;-87
2022/06/09 10:09:25;;;;;;;;;4.25;2.00;;;;;21.43;46.19;101553.13;5037159;28;45336;-85
2022/06/09 10:11:54;;;;;;;;;6.75;2.00;;;;;21.33;46.14;101549.38;5004509;28;45400;-86
2022/06/09 10:14:36;;;;;;;;;2.00;2.00;;;;;21.19;46.63;101558.13;5027801;28;45487;-86
2022/06/09 10:17:05;;;;;;;;;3.00;2.00;;;;;21.01;45.84;101555.66;5028443;28;45336;-87
2022/06/09 10:19:32;;;;;;;;;2.25;2.00;;;;;20.84;45.63;101563.78;5021010;28;46383;-90
2022/06/09 10:22:04;;;;;;;;;3.25;2.00;;;;;20.75;45.49;101556.38;5036678;28;45494;-87
2022/06/09 10:24:48;;;;;;;;;4.00;2.00;;;;;20.83;46.43;101560.25;5029621;28;45510;-87
2022/06/09 10:27:16;;;;;;;;;3.00;1.00;;;;;20.87;45.95;101561.75;5021522;28;45473;-86
2022/06/09 10:29:50;;;;;;;;;3.00;2.00;;;;;20.96;46.02;101572.75;5030507;28;45588;-87
2022/06/09 10:32:30;;;;;;;;;2.25;2.00;;;;;21.01;46.26;101571.53;5012945;28;45484;-90
2022/06/09 10:35:27;;;;;;;;;2.25;1.00;;;;;20.94;45.13;101569.34;5018307;28;45635;-87
2022/06/09 10:38:02;;;;;;;;;2.75;1.75;;;;;20.79;44.64;101563.19;5020195;28;45486;-85
2022/06/09 10:40:44;;;;;;;;;2.00;1.25;;;;;20.65;44.84;101566.63;5019732;28;46602;-86
2022/06/09 10:43:30;;;;;;;;;3.50;2.00;;;;;20.77;45.96;101560.63;5019793;28;45342;-84
2022/06/09 10:46:11;;;;;;;;;3.00;2.75;;;;;21.03;45.77;101566.16;5033244;28;45533;-87
2022/06/09 10:57:49;;;;;;;;;0.25;0.25;;;;;21.54;44.60;101584.28;4995782;28;45437;-91
2022/06/09 11:00:24;;;;;;;;;2.00;2.00;;;;;21.78;44.47;101579.25;4969238;28;45662;-87
2022/06/09 11:02:54;;;;;;;;;4.50;2.00;;;;;22.07;43.31;101587.19;4981319;28;47131;-90
2022/06/09 11:05:28;;;;;;;;;2.00;2.00;;;;;22.22;43.16;101586.19;4979764;28;45361;-87
2022/06/09 11:07:59;;;;;;;;;2.00;1.50;;;;;22.51;43.78;101588.75;4965652;28;45350;-93
2022/06/09 11:10:27;;;;;;;;;3.50;1.00;;;;;22.92;42.73;101580.69;4987800;28;45473;-87
2022/06/09 11:12:52;;;;;;;;;1.00;1.00;;;;;23.16;42.29;101583.50;4993327;28;46368;-90
2022/06/09 11:15:30;;;;;;;;;3.00;3.00;;;;;23.54;41.61;101577.31;4980672;28;45391;-95
2022/06/09 11:18:01;;;;;;;;;3.50;2.00;;;;;23.66;41.39;101578.28;4984421;28;45297;-90
2022/06/09 11:21:00;;;;;;;;;8.50;2.75;;;;;23.50;39.72;101572.34;4979696;28;45479;-88
2022/06/09 11:24:07;;;;;;;;;4.50;3.75;;;;;23.32;41.22;101588.59;4977666;28;48574;-87
2022/06/09 11:26:38;;;;;;;;;4.50;2.00;;;;;23.14;40.67;101584.56;4929320;28;45501;-87
2022/06/09 11:29:36;;;;;;;;;1.75;1.00;;;;;23.60;40.56;101577.84;4933132;28;45448;-88
2022/06/09 11:32:20;;;;;;;;;2.00;2.00;;;;;24.79;38.94;101586.06;4919318;28;45590;-89
2022/06/09 11:35:13;;;;;;;;;;;;;;;;;;;;;
2022/06/09 11:37:51;;;;;;;;;4.25;2.00;;;;;25.96;37.69;101595.66;4930003;28;71653;-89
2022/06/09 11:40:19;;;;;;;;;4.00;2.00;;;;;26.18;37.07;101578.75;4954390;28;45501;-89
2022/06/09 11:42:50;;;;;;;;;4.25;2.00;;;;;26.84;35.30;101587.50;4938024;28;45387;-87
2022/06/09 11:45:55;;;;;;;;;3.75;1.75;;;;;27.70;34.35;101584.56;4953847;28;47421;-87
2022/06/09 11:48:23;;;;;;;;;1.00;1.00;;;;;28.66;33.67;101589.41;4954982;28;45660;-88
2022/06/09 11:50:49;;;;;;;;;2.25;1.50;;;;;28.19;31.44;101592.72;4955005;28;45485;-87
2022/06/09 11:53:18;;;;;;;;;1.75;1.75;;;;;28.85;32.68;101585.88;4940918;28;45484;-94
2022/06/09 11:56:02;;;;;;;;;1.75;1.75;;;;;29.33;30.97;101583.09;4943751;28;45589;-85
2022/06/09 11:58:34;;;;;;;;;4.00;2.50;;;;;30.08;32.48;101590.22;4941916;28;45720;-94
2022/06/09 12:01:42;;;;;;;;;2.00;2.00;;;;;31.96;30.31;101593.34;4946058;28;45454;-91